Time;durP1;ratioP1;P1;durP2;ratioP2;P2;SDS_P1;SDS_P2;PMS_P1;PMS_P2;Temp;Humidity;BMP_temperature;BMP_pressure;BME280_temperature;BME280_humidity;BME280_pressure;Samples;Min_cycle;Max_cycle;Signal;HPM_P1;HPM_P2
2021/04/28 00:00:09;;;;;;;2.87;2.63;;;5.60;92.90;;;;;;484229;245;28089;-71
2021/04/28 00:02:12;;;;;;;5.85;2.80;;;5.50;93.30;;;;;;484214;245;27728;-71
2021/04/28 00:04:12;;;;;;;3.13;2.83;;;5.40;94.00;;;;;;484199;245;27586;-71
2021/04/28 00:06:13;;;;;;;3.83;3.13;;;5.40;94.20;;;;;;484205;245;27967;-72
2021/04/28 00:08:14;;;;;;;4.87;2.80;;;5.30;93.80;;;;;;484187;245;27726;-71
2021/04/28 00:10:16;;;;;;;2.80;2.43;;;5.20;93.80;;;;;;484189;245;27934;-72
2021/04/28 00:12:17;;;;;;;5.47;3.08;;;5.20;94.30;;;;;;484171;245;29299;-71
2021/04/28 00:14:18;;;;;;;4.65;3.10;;;5.20;94.60;;;;;;484196;245;27510;-71
2021/04/28 00:16:20;;;;;;;4.12;2.97;;;5.20;94.90;;;;;;484195;245;27510;-73
2021/04/28 00:18:21;;;;;;;2.70;2.50;;;5.10;95.20;;;;;;484192;245;27561;-71
2021/04/28 00:20:22;;;;;;;5.00;2.75;;;5.10;95.40;;;;;;484203;245;27503;-71
2021/04/28 00:22:23;;;;;;;5.30;3.40;;;5.10;96.00;;;;;;484208;245;27561;-71
2021/04/28 00:24:25;;;;;;;3.50;3.20;;;5.10;95.80;;;;;;484196;245;28822;-71
2021/04/28 00:26:27;;;;;;;4.07;3.62;;;5.10;95.50;;;;;;484196;245;27942;-72
2021/04/28 00:28:27;;;;;;;2.87;2.62;;;5.10;95.80;;;;;;484201;245;27941;-71
2021/04/28 00:30:28;;;;;;;2.92;2.72;;;5.20;96.20;;;;;;484228;245;27484;-71
2021/04/28 00:32:30;;;;;;;4.43;2.80;;;5.20;96.50;;;;;;484221;245;27469;-71
2021/04/28 00:34:31;;;;;;;4.10;3.10;;;5.00;96.50;;;;;;484207;245;27502;-71
2021/04/28 00:36:32;;;;;;;4.25;3.00;;;5.00;96.50;;;;;;484226;245;27487;-72
2021/04/28 00:38:34;;;;;;;3.33;3.00;;;4.90;96.50;;;;;;484221;245;27897;-71
2021/04/28 00:40:35;;;;;;;3.50;3.20;;;4.90;96.50;;;;;;484203;245;27935;-72
2021/04/28 00:42:36;;;;;;;3.67;2.70;;;4.90;96.30;;;;;;484220;245;27562;-71
2021/04/28 00:44:37;;;;;;;3.17;2.72;;;4.80;96.50;;;;;;484225;245;27509;-72
2021/04/28 00:46:39;;;;;;;3.58;3.03;;;4.70;96.60;;;;;;484213;245;27526;-72
2021/04/28 00:48:40;;;;;;;3.00;2.80;;;4.70;97.10;;;;;;484182;245;27586;-72
2021/04/28 00:50:41;;;;;;;4.25;2.80;;;4.80;97.40;;;;;;484194;245;27581;-72
2021/04/28 00:52:42;;;;;;;3.20;2.90;;;4.70;97.10;;;;;;480389;245;27942;-71
2021/04/28 00:54:44;;;;;;;4.28;3.03;;;4.80;97.50;;;;;;482481;245;27870;-71
2021/04/28 00:56:45;;;;;;;3.10;2.85;;;4.70;98.00;;;;;;482495;245;27427;-72
2021/04/28 00:58:46;;;;;;;3.87;2.78;;;4.70;98.40;;;;;;482528;245;27422;-71
2021/04/28 01:00:47;;;;;;;3.28;2.97;;;4.70;98.90;;;;;;482507;245;27583;-72
2021/04/28 01:02:48;;;;;;;3.72;3.25;;;4.70;99.30;;;;;;482558;245;27479;-71
2021/04/28 01:04:50;;;;;;;3.10;2.85;;;4.70;99.30;;;;;;482506;246;27442;-71
2021/04/28 01:06:51;;;;;;;4.93;3.08;;;4.70;98.10;;;;;;482508;245;28002;-73
2021/04/28 01:08:52;;;;;;;3.40;3.10;;;4.80;98.70;;;;;;482525;246;27892;-71
2021/04/28 01:10:53;;;;;;;3.12;2.83;;;4.80;98.90;;;;;;482511;245;27414;-73
2021/04/28 01:12:55;;;;;;;3.20;3.00;;;4.70;98.20;;;;;;482511;245;27403;-71
2021/04/28 01:14:56;;;;;;;3.35;3.05;;;4.60;98.40;;;;;;482509;245;27402;-71
2021/04/28 01:16:57;;;;;;;7.12;3.72;;;4.50;99.20;;;;;;482520;245;27497;-72
2021/04/28 01:18:58;;;;;;;6.20;3.50;;;4.50;99.30;;;;;;482503;245;27424;-71
2021/04/28 01:21:00;;;;;;;3.15;2.85;;;4.50;99.40;;;;;;482520;245;27866;-72
2021/04/28 01:23:01;;;;;;;3.80;2.90;;;4.50;99.70;;;;;;482497;245;27972;-71
2021/04/28 01:25:02;;;;;;;7.00;3.05;;;4.40;99.90;;;;;;482492;245;27414;-73
2021/04/28 01:27:04;;;;;;;3.78;2.90;;;4.20;99.90;;;;;;482485;246;27402;-71
2021/04/28 01:29:05;;;;;;;4.50;3.08;;;4.20;99.90;;;;;;482519;245;27425;-71
2021/04/28 01:31:06;;;;;;;3.15;2.85;;;4.20;99.90;;;;;;482517;245;27425;-72
2021/04/28 01:33:07;;;;;;;6.55;3.00;;;4.20;99.90;;;;;;482540;245;27494;-71
2021/04/28 01:35:09;;;;;;;3.40;3.10;;;4.20;99.90;;;;;;482499;245;27897;-71
2021/04/28 01:37:10;;;;;;;3.80;3.40;;;4.10;99.90;;;;;;482514;245;27957;-72
2021/04/28 01:39:11;;;;;;;2.95;2.70;;;4.10;99.90;;;;;;482496;246;27477;-70
2021/04/28 01:41:12;;;;;;;4.95;3.20;;;4.00;99.90;;;;;;482505;246;27422;-72
2021/04/28 01:43:14;;;;;;;4.00;2.80;;;4.00;99.90;;;;;;482503;245;27398;-71
2021/04/28 01:45:15;;;;;;;3.08;2.87;;;4.00;99.90;;;;;;482509;245;27430;-71
2021/04/28 01:47:16;;;;;;;5.37;3.22;;;4.10;99.90;;;;;;482512;245;27828;-71
2021/04/28 01:49:17;;;;;;;5.47;3.42;;;4.00;99.90;;;;;;482504;245;27407;-72
2021/04/28 01:51:19;;;;;;;4.90;3.20;;;4.10;99.90;;;;;;482502;246;27874;-72
2021/04/28 01:53:20;;;;;;;3.90;3.30;;;4.10;99.90;;;;;;482503;245;27942;-71
2021/04/28 01:55:21;;;;;;;4.35;3.50;;;4.10;99.90;;;;;;482505;246;27501;-71
2021/04/28 01:57:22;;;;;;;6.50;3.47;;;4.10;99.90;;;;;;482503;246;27406;-72
2021/04/28 01:59:24;;;;;;;3.50;3.20;;;4.20;99.90;;;;;;482501;245;27402;-70
2021/04/28 02:01:25;;;;;;;3.40;3.10;;;4.10;99.90;;;;;;482508;245;27414;-71
2021/04/28 02:03:26;;;;;;;4.85;3.42;;;4.10;99.90;;;;;;482538;245;27403;-71
2021/04/28 02:05:27;;;;;;;5.07;3.45;;;4.10;99.90;;;;;;482517;245;27474;-73
2021/04/28 02:07:29;;;;;;;5.68;3.47;;;4.10;99.90;;;;;;482516;245;28088;-71
2021/04/28 02:09:30;;;;;;;3.72;3.10;;;4.10;99.90;;;;;;482503;245;27881;-72
2021/04/28 02:11:31;;;;;;;3.50;3.17;;;4.00;99.90;;;;;;482496;245;27406;-73
2021/04/28 02:13:32;;;;;;;3.37;3.08;;;4.00;99.90;;;;;;482497;245;27415;-71
2021/04/28 02:15:34;;;;;;;3.58;2.90;;;4.10;99.90;;;;;;482498;245;27501;-72
2021/04/28 02:17:35;;;;;;;7.22;3.28;;;4.10;99.90;;;;;;482504;246;28025;-71
2021/04/28 02:19:36;;;;;;;4.03;3.40;;;4.00;99.90;;;;;;482503;245;27485;-71
2021/04/28 02:21:37;;;;;;;5.70;3.70;;;4.00;99.90;;;;;;482503;245;27407;-72
2021/04/28 02:23:39;;;;;;;3.58;3.03;;;4.00;99.90;;;;;;482513;245;27957;-72
2021/04/28 02:25:40;;;;;;;3.20;2.95;;;4.00;99.90;;;;;;482503;245;27978;-71
2021/04/28 02:27:41;;;;;;;3.83;3.45;;;4.00;99.90;;;;;;482505;245;27422;-72
2021/04/28 02:29:42;;;;;;;7.10;3.60;;;4.00;99.90;;;;;;482509;245;27402;-71
2021/04/28 02:31:44;;;;;;;6.68;3.70;;;4.10;99.90;;;;;;482488;245;27417;-73
2021/04/28 02:33:45;;;;;;;4.87;3.80;;;4.10;99.90;;;;;;482496;245;27505;-72
2021/04/28 02:35:46;;;;;;;4.30;3.53;;;4.10;99.90;;;;;;482543;245;27405;-72
2021/04/28 02:37:47;;;;;;;4.30;3.25;;;4.10;99.90;;;;;;482506;245;27437;-71
2021/04/28 02:39:49;;;;;;;3.85;3.50;;;4.10;99.90;;;;;;482489;245;27895;-72
2021/04/28 02:41:50;;;;;;;4.60;3.30;;;3.90;99.90;;;;;;482498;245;27976;-72
2021/04/28 02:43:51;;;;;;;3.72;3.35;;;3.80;99.90;;;;;;482490;245;28034;-71
2021/04/28 02:45:52;;;;;;;8.02;3.62;;;3.80;99.90;;;;;;482476;246;27418;-70
2021/04/28 02:47:54;;;;;;;4.25;3.85;;;3.80;99.90;;;;;;482472;245;27499;-71
2021/04/28 02:49:55;;;;;;;4.78;4.22;;;3.80;99.90;;;;;;482491;245;27505;-72
2021/04/28 02:51:56;;;;;;;4.75;3.75;;;3.80;99.90;;;;;;482513;245;27481;-72
2021/04/28 02:53:57;;;;;;;5.50;4.40;;;3.80;99.90;;;;;;482472;245;27418;-70
2021/04/28 02:55:59;;;;;;;5.55;3.87;;;3.80;99.90;;;;;;482498;245;27426;-72
2021/04/28 02:58:00;;;;;;;5.90;4.07;;;3.80;99.90;;;;;;482508;245;27493;-71
2021/04/28 03:00:01;;;;;;;4.40;4.00;;;3.80;99.90;;;;;;482480;245;27976;-71
2021/04/28 03:02:03;;;;;;;7.78;4.00;;;3.70;99.90;;;;;;482517;245;27987;-72
2021/04/28 03:04:04;;;;;;;4.70;3.80;;;3.80;99.90;;;;;;482515;245;27405;-72
2021/04/28 03:06:06;;;;;;;5.55;3.97;;;3.80;99.90;;;;;;482504;245;27426;-71
2021/04/28 03:08:06;;;;;;;28.40;4.53;;;3.70;99.90;;;;;;482498;246;27474;-71
2021/04/28 03:10:08;;;;;;;4.80;3.55;;;3.70;99.90;;;;;;482520;245;27410;-71
2021/04/28 03:12:09;;;;;;;5.82;3.72;;;3.70;99.90;;;;;;482511;245;27411;-73
2021/04/28 03:14:10;;;;;;;5.20;4.10;;;3.70;99.90;;;;;;482541;245;27466;-71
2021/04/28 03:16:11;;;;;;;7.65;4.05;;;3.70;99.90;;;;;;482523;245;27418;-71
2021/04/28 03:18:13;;;;;;;4.35;4.00;;;3.60;99.90;;;;;;482491;246;27994;-72
2021/04/28 03:20:14;;;;;;;5.93;4.53;;;3.60;99.90;;;;;;482486;245;27973;-72
2021/04/28 03:22:16;;;;;;;4.55;4.15;;;3.60;99.90;;;;;;482479;246;27422;-73
2021/04/28 03:24:16;;;;;;;4.70;3.87;;;3.60;99.90;;;;;;482462;246;27418;-72
2021/04/28 03:26:18;;;;;;;4.45;3.75;;;3.60;99.90;;;;;;482494;245;27414;-72
2021/04/28 03:28:19;;;;;;;6.47;4.22;;;3.60;99.90;;;;;;482478;245;27411;-71
2021/04/28 03:30:20;;;;;;;6.05;4.28;;;3.50;99.90;;;;;;482494;245;27474;-71
2021/04/28 03:32:21;;;;;;;8.27;4.05;;;3.50;99.90;;;;;;476801;245;27352;-71
2021/04/28 03:34:23;;;;;;;6.50;4.18;;;3.40;99.90;;;;;;470089;249;27406;-72
2021/04/28 03:36:24;;;;;;;4.37;3.78;;;3.40;99.90;;;;;;470096;252;27902;-72
2021/04/28 03:38:25;;;;;;;4.40;4.00;;;3.40;99.90;;;;;;470092;252;27815;-72
2021/04/28 03:40:26;;;;;;;5.15;4.65;;;3.40;99.90;;;;;;470077;252;27832;-72
2021/04/28 03:42:28;;;;;;;4.97;3.75;;;3.40;99.90;;;;;;469563;245;27345;-72
2021/04/28 03:44:29;;;;;;;6.43;4.12;;;3.40;99.90;;;;;;467706;253;27340;-71
2021/04/28 03:46:30;;;;;;;5.57;4.18;;;3.50;99.90;;;;;;467726;253;27458;-71
2021/04/28 03:48:31;;;;;;;4.30;3.85;;;3.50;99.90;;;;;;467701;253;27376;-72
2021/04/28 03:50:33;;;;;;;4.25;3.85;;;3.40;99.90;;;;;;467703;253;27420;-72
2021/04/28 03:52:34;;;;;;;7.05;4.35;;;3.30;99.90;;;;;;470316;245;27509;-71
2021/04/28 03:54:35;;;;;;;5.12;4.40;;;3.30;99.90;;;;;;472958;250;27866;-70
2021/04/28 03:56:36;;;;;;;4.53;4.12;;;3.40;99.90;;;;;;472955;250;27879;-72
2021/04/28 03:58:38;;;;;;;7.18;5.00;;;3.40;99.90;;;;;;472948;250;27507;-71
2021/04/28 04:00:39;;;;;;;5.22;4.12;;;3.40;99.90;;;;;;472964;250;27426;-72
2021/04/28 04:02:40;;;;;;;7.00;4.95;;;3.30;99.90;;;;;;472942;250;27859;-71
2021/04/28 04:04:41;;;;;;;5.28;4.43;;;3.30;99.90;;;;;;472946;246;27469;-72
2021/04/28 04:06:43;;;;;;;5.65;4.93;;;3.30;99.90;;;;;;472937;246;27493;-73
2021/04/28 04:08:44;;;;;;;7.30;4.70;;;3.20;99.90;;;;;;472929;247;27416;-71
2021/04/28 04:10:45;;;;;;;7.97;4.57;;;3.30;99.90;;;;;;472961;250;27427;-72
2021/04/28 04:12:46;;;;;;;5.55;4.22;;;3.30;99.90;;;;;;472941;250;27405;-70
2021/04/28 04:14:48;;;;;;;5.50;4.65;;;3.30;99.90;;;;;;472926;251;27985;-71
2021/04/28 04:16:49;;;;;;;5.60;4.62;;;3.30;99.90;;;;;;472951;250;27912;-71
2021/04/28 04:18:50;;;;;;;6.43;4.72;;;3.30;99.90;;;;;;472938;250;27868;-72
2021/04/28 04:20:51;;;;;;;6.70;4.97;;;3.30;99.90;;;;;;472933;247;28007;-73
2021/04/28 04:22:53;;;;;;;5.47;4.40;;;3.30;99.90;;;;;;472968;250;27495;-71
2021/04/28 04:24:54;;;;;;;9.30;4.82;;;3.40;99.90;;;;;;472943;250;27500;-72
2021/04/28 04:26:55;;;;;;;4.25;3.85;;;3.30;99.90;;;;;;472938;250;27496;-75
2021/04/28 04:28:56;;;;;;;5.70;4.35;;;3.30;99.90;;;;;;472934;247;27481;-71
2021/04/28 04:30:58;;;;;;;5.50;4.50;;;3.20;99.90;;;;;;472962;250;27512;-72
2021/04/28 04:32:59;;;;;;;6.35;5.05;;;3.00;99.90;;;;;;472932;246;27426;-71
2021/04/28 04:35:00;;;;;;;6.03;4.00;;;3.00;99.90;;;;;;472946;250;27516;-72
2021/04/28 04:37:02;;;;;;;5.93;4.18;;;3.00;99.90;;;;;;472959;251;27985;-72
2021/04/28 04:39:03;;;;;;;5.45;4.37;;;3.10;99.90;;;;;;472940;250;27976;-71
2021/04/28 04:41:04;;;;;;;8.23;4.10;;;3.10;99.90;;;;;;472923;247;27971;-71
2021/04/28 04:43:05;;;;;;;5.18;4.30;;;3.10;99.90;;;;;;472941;250;27965;-72
2021/04/28 04:45:06;;;;;;;5.55;4.28;;;3.10;99.90;;;;;;472970;246;27515;-72
2021/04/28 04:47:08;;;;;;;6.15;4.25;;;3.10;99.90;;;;;;472950;251;27533;-73
2021/04/28 04:49:09;;;;;;;8.38;5.00;;;3.20;99.90;;;;;;472930;246;27418;-71
2021/04/28 04:51:10;;;;;;;5.60;4.30;;;3.20;99.90;;;;;;472953;246;27434;-72
2021/04/28 04:53:11;;;;;;;7.53;4.97;;;3.20;99.90;;;;;;472558;250;27411;-71
2021/04/28 04:55:16;;;;;;;9.07;5.12;;;3.30;99.90;;;;;;471929;252;27483;-71
2021/04/28 04:57:17;;;;;;;5.15;4.10;;;3.30;99.90;;;;;;471917;252;27424;-70
2021/04/28 04:59:19;;;;;;;7.15;4.30;;;3.40;99.90;;;;;;471934;252;27980;-72
2021/04/28 05:01:19;;;;;;;5.53;4.87;;;3.40;99.90;;;;;;471881;252;27883;-71
2021/04/28 05:03:20;;;;;;;6.95;4.82;;;3.40;99.90;;;;;;474537;249;27985;-72
2021/04/28 05:05:22;;;;;;;6.32;4.35;;;3.30;99.90;;;;;;475351;250;27474;-71
2021/04/28 05:07:23;;;;;;;5.12;4.50;;;3.30;99.90;;;;;;475368;250;27453;-72
2021/04/28 05:09:24;;;;;;;10.07;4.85;;;3.30;99.90;;;;;;475338;250;27531;-71
2021/04/28 05:11:25;;;;;;;6.55;4.62;;;3.30;99.90;;;;;;475347;250;27430;-71
2021/04/28 05:13:27;;;;;;;10.23;4.00;;;3.40;99.90;;;;;;475394;250;27425;-72
2021/04/28 05:15:28;;;;;;;8.90;5.28;;;3.50;99.90;;;;;;475375;250;27548;-71
2021/04/28 05:17:29;;;;;;;5.97;4.30;;;3.50;99.90;;;;;;475362;250;27877;-71
2021/04/28 05:19:31;;;;;;;6.05;4.45;;;3.50;99.90;;;;;;475356;250;28093;-71
2021/04/28 05:21:32;;;;;;;5.72;4.50;;;3.50;99.90;;;;;;475355;250;27866;-71
2021/04/28 05:23:33;;;;;;;9.80;4.68;;;3.60;99.90;;;;;;475357;250;27425;-72
2021/04/28 05:25:34;;;;;;;8.60;4.55;;;3.60;99.90;;;;;;475370;250;27421;-72
2021/04/28 05:27:36;;;;;;;5.87;4.85;;;3.60;99.90;;;;;;475361;250;27434;-71
2021/04/28 05:29:37;;;;;;;7.65;4.80;;;3.70;99.90;;;;;;475366;250;27473;-71
2021/04/28 05:31:38;;;;;;;5.20;4.30;;;3.70;99.90;;;;;;475372;250;27442;-71
2021/04/28 05:33:40;;;;;;;6.32;4.60;;;3.80;99.90;;;;;;475361;250;27429;-72
2021/04/28 05:35:41;;;;;;;6.60;4.80;;;3.90;99.90;;;;;;475361;250;27508;-72
2021/04/28 05:37:42;;;;;;;5.30;4.72;;;3.90;99.90;;;;;;475369;250;27891;-70
2021/04/28 05:39:43;;;;;;;5.10;3.92;;;4.00;99.90;;;;;;475360;250;28460;-70
2021/04/28 05:41:44;;;;;;;7.40;5.10;;;4.10;99.90;;;;;;475359;250;27525;-71
2021/04/28 05:43:46;;;;;;;10.30;4.97;;;4.20;99.90;;;;;;475333;250;27550;-73
2021/04/28 05:45:47;;;;;;;8.70;4.25;;;4.20;99.90;;;;;;475352;250;27436;-72
2021/04/28 05:47:48;;;;;;;7.20;4.50;;;4.20;99.90;;;;;;475365;250;27461;-71
2021/04/28 05:49:49;;;;;;;5.65;4.45;;;4.20;99.90;;;;;;475347;250;27422;-72
2021/04/28 05:51:51;;;;;;;9.52;4.60;;;4.20;99.90;;;;;;475358;250;27441;-71
2021/04/28 05:53:52;;;;;;;8.90;4.35;;;4.30;99.90;;;;;;475355;250;27897;-71
2021/04/28 05:55:53;;;;;;;15.85;5.43;;;4.40;99.90;;;;;;475361;250;27972;-71
2021/04/28 05:57:54;;;;;;;9.52;5.78;;;4.40;99.90;;;;;;475371;250;27441;-72
2021/04/28 05:59:56;;;;;;;8.32;5.40;;;4.60;99.90;;;;;;475360;250;27502;-71
2021/04/28 06:01:57;;;;;;;8.43;6.05;;;4.60;99.90;;;;;;475355;250;27529;-72
2021/04/28 06:03:58;;;;;;;6.45;4.80;;;4.70;99.90;;;;;;475361;250;27449;-71
2021/04/28 06:05:59;;;;;;;5.85;4.60;;;4.80;99.90;;;;;;475357;250;27441;-71
2021/04/28 06:08:01;;;;;;;5.85;5.10;;;4.80;99.90;;;;;;475353;250;27893;-71
2021/04/28 06:10:02;;;;;;;5.32;4.40;;;4.80;99.90;;;;;;475350;250;27885;-71
2021/04/28 06:12:03;;;;;;;6.60;4.53;;;4.90;99.90;;;;;;475357;250;27516;-72
2021/04/28 06:14:04;;;;;;;6.50;4.32;;;5.00;99.90;;;;;;475348;250;27445;-74
2021/04/28 06:16:06;;;;;;;6.93;4.30;;;5.00;99.90;;;;;;475370;250;27425;-71
2021/04/28 06:18:07;;;;;;;4.43;4.03;;;5.10;99.90;;;;;;475364;250;27427;-72
2021/04/28 06:20:08;;;;;;;8.17;4.40;;;5.10;99.90;;;;;;475357;250;27552;-71
2021/04/28 06:22:09;;;;;;;5.65;4.15;;;5.20;99.90;;;;;;475363;250;28854;-71
2021/04/28 06:24:11;;;;;;;4.60;4.20;;;5.20;99.90;;;;;;475359;250;27997;-72
2021/04/28 06:26:12;;;;;;;6.57;4.20;;;5.30;99.90;;;;;;475349;250;27911;-71
2021/04/28 06:28:13;;;;;;;4.80;4.30;;;5.30;99.90;;;;;;475370;250;27517;-71
2021/04/28 06:30:14;;;;;;;5.07;4.00;;;5.40;99.90;;;;;;475376;250;27425;-71
2021/04/28 06:32:16;;;;;;;5.43;4.50;;;5.50;99.90;;;;;;475379;250;27509;-72
2021/04/28 06:34:17;;;;;;;6.70;5.05;;;5.60;99.90;;;;;;475382;250;27583;-72
2021/04/28 06:36:18;;;;;;;6.07;4.80;;;5.70;99.90;;;;;;475367;250;27460;-71
2021/04/28 06:38:20;;;;;;;6.20;4.40;;;5.70;99.90;;;;;;475366;250;28016;-73
2021/04/28 06:40:22;;;;;;;6.03;4.55;;;5.80;99.90;;;;;;475361;250;28921;-71
2021/04/28 06:42:22;;;;;;;8.63;4.50;;;5.90;99.90;;;;;;475360;250;27417;-71
2021/04/28 06:44:23;;;;;;;5.60;4.07;;;6.00;99.90;;;;;;475373;250;28454;-73
2021/04/28 06:46:25;;;;;;;5.57;4.67;;;6.00;99.90;;;;;;475356;250;27928;-71
2021/04/28 06:48:26;;;;;;;7.07;4.60;;;6.10;99.90;;;;;;475368;250;27691;-71
2021/04/28 06:50:27;;;;;;;5.77;4.77;;;6.10;99.90;;;;;;475344;250;28806;-70
2021/04/28 06:52:28;;;;;;;7.10;4.73;;;6.20;99.90;;;;;;475391;250;27644;-72
2021/04/28 06:54:30;;;;;;;7.53;5.10;;;6.30;99.90;;;;;;475384;250;28064;-73
2021/04/28 06:56:31;;;;;;;5.67;5.07;;;6.40;99.90;;;;;;475389;250;27906;-71
2021/04/28 06:58:33;;;;;;;4.67;4.20;;;6.50;99.90;;;;;;475379;250;27971;-72
2021/04/28 07:00:33;;;;;;;5.27;4.80;;;6.60;99.90;;;;;;475367;250;27897;-71
2021/04/28 07:02:35;;;;;;;9.23;5.00;;;6.70;99.90;;;;;;475384;250;28013;-71
2021/04/28 07:04:36;;;;;;;5.60;5.00;;;6.80;99.90;;;;;;475383;250;27923;-72
2021/04/28 07:06:37;;;;;;;8.87;5.10;;;6.90;99.90;;;;;;475364;250;27917;-71
2021/04/28 07:08:38;;;;;;;5.37;4.87;;;6.90;99.90;;;;;;475353;250;28539;-71
2021/04/28 07:10:40;;;;;;;6.93;4.77;;;7.00;99.90;;;;;;475355;250;28416;-71
2021/04/28 07:12:41;;;;;;;9.63;5.30;;;7.10;99.90;;;;;;475360;250;28257;-71
2021/04/28 07:14:42;;;;;;;5.60;4.80;;;7.30;99.90;;;;;;475384;250;28703;-71
2021/04/28 07:16:43;;;;;;;6.90;4.57;;;7.50;99.90;;;;;;475376;250;28496;-71
2021/04/28 07:18:45;;;;;;;8.83;4.93;;;7.50;99.90;;;;;;475380;250;27671;-71
2021/04/28 07:20:46;;;;;;;5.10;4.60;;;7.60;99.90;;;;;;475383;250;27879;-71
2021/04/28 07:22:47;;;;;;;6.30;4.77;;;7.70;99.90;;;;;;475369;250;27924;-71
2021/04/28 07:24:49;;;;;;;6.97;5.27;;;7.80;99.90;;;;;;475387;250;27974;-72
2021/04/28 07:26:49;;;;;;;5.57;4.97;;;7.90;99.90;;;;;;475353;250;27980;-71
2021/04/28 07:28:51;;;;;;;5.93;5.23;;;8.00;99.90;;;;;;475378;250;27768;-71
2021/04/28 07:30:52;;;;;;;5.70;4.63;;;8.20;99.90;;;;;;475373;250;27771;-72
2021/04/28 07:32:53;;;;;;;9.83;5.03;;;8.30;99.90;;;;;;475384;250;27888;-71
2021/04/28 07:34:54;;;;;;;8.80;4.77;;;8.30;99.90;;;;;;475388;250;27916;-71
2021/04/28 07:36:56;;;;;;;6.80;5.67;;;8.40;99.90;;;;;;475385;250;28036;-71
2021/04/28 07:38:57;;;;;;;6.10;5.40;;;8.60;99.90;;;;;;475397;250;27875;-71
2021/04/28 07:40:58;;;;;;;5.80;4.83;;;8.90;99.90;;;;;;475379;250;27507;-71
2021/04/28 07:42:59;;;;;;;6.80;4.93;;;9.00;99.90;;;;;;475351;250;28065;-72
2021/04/28 07:45:01;;;;;;;8.47;5.10;;;9.00;99.90;;;;;;475352;250;27794;-71
2021/04/28 07:47:02;;;;;;;7.80;5.83;;;8.90;99.90;;;;;;475357;250;28839;-71
2021/04/28 07:49:06;;;;;;;8.70;4.93;;;8.90;99.90;;;;;;475357;250;28542;-72
2021/04/28 07:51:07;;;;;;;6.70;5.33;;;9.10;99.90;;;;;;475341;250;28379;-71
2021/04/28 07:53:08;;;;;;;7.00;5.87;;;9.30;99.90;;;;;;475359;250;28481;-71
2021/04/28 07:55:10;;;;;;;8.17;6.33;;;9.50;99.90;;;;;;475357;250;27886;-73
2021/04/28 07:57:11;;;;;;;11.97;6.70;;;9.60;99.90;;;;;;475338;250;27660;-72
2021/04/28 07:59:13;;;;;;;8.27;5.73;;;9.80;99.90;;;;;;475375;250;27881;-71
2021/04/28 08:01:13;;;;;;;8.73;6.57;;;9.80;99.90;;;;;;475382;250;27975;-71
2021/04/28 08:03:15;;;;;;;10.00;6.53;;;9.80;99.90;;;;;;475383;250;28021;-72
2021/04/28 08:05:16;;;;;;;7.80;5.87;;;9.90;99.90;;;;;;475394;250;27749;-72
2021/04/28 08:07:17;;;;;;;7.40;5.43;;;9.90;99.90;;;;;;475394;250;27664;-72
2021/04/28 08:09:18;;;;;;;7.40;5.87;;;9.90;99.90;;;;;;475389;250;27964;-72
2021/04/28 08:11:20;;;;;;;7.63;5.80;;;9.90;99.90;;;;;;475361;250;27544;-71
2021/04/28 08:13:21;;;;;;;7.63;6.27;;;9.90;99.90;;;;;;475378;250;27676;-71
2021/04/28 08:15:22;;;;;;;9.27;6.30;;;9.90;99.90;;;;;;475343;250;28121;-72
2021/04/28 08:17:23;;;;;;;7.70;5.87;;;9.90;99.90;;;;;;475356;250;27979;-72
2021/04/28 08:19:25;;;;;;;9.87;6.53;;;10.00;99.90;;;;;;475350;250;28836;-72
2021/04/28 08:21:26;;;;;;;7.40;5.40;;;10.00;99.90;;;;;;475385;250;28463;-72
2021/04/28 08:23:31;;;;;;;14.13;7.30;;;10.10;99.90;;;;;;475370;250;28597;-71
2021/04/28 08:25:28;;;;;;;8.60;6.90;;;10.30;99.50;;;;;;475357;249;28150;-71
2021/04/28 08:27:30;;;;;;;12.57;7.20;;;10.50;99.00;;;;;;475379;250;27916;-71
2021/04/28 08:29:31;;;;;;;9.10;6.20;;;10.90;98.40;;;;;;475387;250;27933;-72
2021/04/28 08:31:32;;;;;;;7.30;6.17;;;11.10;98.00;;;;;;475383;250;28148;-71
2021/04/28 08:33:35;;;;;;;11.70;8.37;;;;;;;;;;475349;250;28165;-72
2021/04/28 08:35:36;;;;;;;9.57;7.70;;;10.80;96.80;;;;;;475352;250;27602;-72
2021/04/28 08:37:37;;;;;;;9.30;6.70;;;11.00;96.20;;;;;;475397;250;28216;-72
2021/04/28 08:39:38;;;;;;;12.37;7.20;;;11.10;96.10;;;;;;475407;250;28217;-72
2021/04/28 08:41:41;;;;;;;9.27;6.70;;;;;;;;;;475415;250;28141;-72
2021/04/28 08:43:43;;;;;;;9.90;7.37;;;;;;;;;;475414;250;27478;-72
2021/04/28 08:45:44;;;;;;;9.90;7.53;;;11.60;95.90;;;;;;475419;250;27200;-71
2021/04/28 08:47:46;;;;;;;12.10;7.80;;;11.70;95.60;;;;;;475418;250;28158;-72
2021/04/28 08:49:47;;;;;;;10.50;8.00;;;11.60;96.60;;;;;;475426;250;28109;-72
2021/04/28 08:51:48;;;;;;;15.10;9.00;;;11.80;94.50;;;;;;475408;250;28466;-72
2021/04/28 08:53:50;;;;;;;14.40;8.07;;;12.10;92.90;;;;;;475411;250;28824;-72
2021/04/28 08:55:51;;;;;;;14.87;10.60;;;12.20;94.90;;;;;;475423;250;28611;-72
2021/04/28 08:57:52;;;;;;;14.93;9.00;;;12.40;90.60;;;;;;475385;250;28244;-72
2021/04/28 08:59:53;;;;;;;16.50;9.97;;;12.50;89.50;;;;;;475380;250;28078;-73
2021/04/28 09:01:54;;;;;;;16.60;10.00;;;13.00;89.60;;;;;;475378;250;27902;-72
2021/04/28 09:03:56;;;;;;;13.30;9.20;;;13.00;90.70;;;;;;475375;250;28210;-72
2021/04/28 09:05:57;;;;;;;11.90;8.83;;;12.80;90.20;;;;;;475346;250;28379;-72
2021/04/28 09:07:58;;;;;;;11.10;7.23;;;12.60;90.00;;;;;;475417;250;28284;-72
2021/04/28 09:10:00;;;;;;;9.73;7.63;;;12.50;90.90;;;;;;475366;250;29395;-72
2021/04/28 09:12:02;;;;;;;9.70;7.60;;;12.50;90.70;;;;;;475356;250;28676;-72
2021/04/28 09:14:02;;;;;;;11.00;8.07;;;12.60;90.10;;;;;;475359;250;28489;-72
2021/04/28 09:16:03;;;;;;;13.37;8.10;;;12.40;89.30;;;;;;475372;250;28492;-72
2021/04/28 09:18:05;;;;;;;13.70;8.03;;;12.60;87.10;;;;;;475371;250;28108;-72
2021/04/28 09:20:06;;;;;;;12.27;8.20;;;12.60;88.40;;;;;;475360;250;28336;-72
2021/04/28 09:22:08;;;;;;;12.60;8.20;;;12.50;88.50;;;;;;475419;250;28260;-72
2021/04/28 09:24:08;;;;;;;10.83;8.37;;;12.70;90.60;;;;;;475416;250;28159;-73
2021/04/28 09:26:10;;;;;;;10.43;7.90;;;12.80;90.40;;;;;;475409;250;28843;-72
2021/04/28 09:28:11;;;;;;;12.80;7.33;;;12.80;83.60;;;;;;475417;250;28141;-72
2021/04/28 09:30:12;;;;;;;13.40;7.10;;;12.70;85.80;;;;;;475430;250;28617;-72
2021/04/28 09:32:13;;;;;;;11.57;8.50;;;12.80;85.90;;;;;;475412;250;28613;-72
2021/04/28 09:34:15;;;;;;;8.67;6.80;;;12.80;83.00;;;;;;475357;250;28780;-72
2021/04/28 09:36:16;;;;;;;9.63;6.80;;;12.90;85.00;;;;;;475372;250;28265;-72
2021/04/28 09:38:17;;;;;;;13.97;8.00;;;12.90;87.70;;;;;;475370;250;28324;-72
2021/04/28 09:40:18;;;;;;;10.37;7.60;;;13.30;86.00;;;;;;475379;250;28437;-72
2021/04/28 09:42:21;;;;;;;10.47;7.50;;;13.80;83.50;;;;;;475352;250;28326;-72
2021/04/28 09:44:21;;;;;;;11.70;8.00;;;13.80;85.30;;;;;;475357;250;28175;-73
2021/04/28 09:46:22;;;;;;;15.03;8.50;;;13.70;82.60;;;;;;475367;250;28205;-72
2021/04/28 09:48:23;;;;;;;7.77;6.37;;;13.90;85.90;;;;;;475367;250;28162;-72
2021/04/28 09:50:25;;;;;;;9.80;6.87;;;13.90;84.30;;;;;;475363;250;29203;-73
2021/04/28 09:52:26;;;;;;;11.03;7.40;;;13.90;85.10;;;;;;475356;250;28680;-72
2021/04/28 09:54:28;;;;;;;9.50;6.70;;;13.90;79.00;;;;;;475362;250;28942;-72
2021/04/28 09:56:28;;;;;;;11.30;7.40;;;14.10;79.60;;;;;;475362;250;28356;-72
2021/04/28 09:58:30;;;;;;;8.93;6.80;;;14.10;78.10;;;;;;475368;250;28260;-72
2021/04/28 10:00:31;;;;;;;7.67;6.20;;;14.00;77.60;;;;;;475359;250;28251;-72
2021/04/28 10:02:32;;;;;;;7.70;5.43;;;14.10;75.40;;;;;;475416;250;28555;-72
2021/04/28 10:04:33;;;;;;;9.53;6.17;;;14.10;71.60;;;;;;475365;250;28387;-72
2021/04/28 10:06:35;;;;;;;9.10;6.90;;;14.20;70.50;;;;;;475351;250;28803;-72
2021/04/28 10:08:36;;;;;;;8.77;6.67;;;14.10;70.20;;;;;;475416;250;28390;-72
2021/04/28 10:10:37;;;;;;;10.57;6.60;;;14.00;72.70;;;;;;475417;250;28490;-72
2021/04/28 10:12:38;;;;;;;6.63;5.93;;;14.30;75.70;;;;;;475398;250;28813;-72
2021/04/28 10:14:40;;;;;;;11.07;7.90;;;14.40;76.60;;;;;;475426;250;28981;-72
2021/04/28 10:16:41;;;;;;;9.20;7.00;;;14.40;75.00;;;;;;475358;250;29039;-72
2021/04/28 10:18:42;;;;;;;10.40;6.30;;;14.30;73.60;;;;;;475360;250;28799;-72
2021/04/28 10:20:43;;;;;;;8.33;7.03;;;14.50;74.10;;;;;;475357;250;28466;-72
2021/04/28 10:22:45;;;;;;;12.03;6.20;;;14.80;71.80;;;;;;475371;250;28792;-73
2021/04/28 10:24:46;;;;;;;8.13;6.40;;;14.70;70.80;;;;;;475407;250;28797;-73
2021/04/28 10:26:47;;;;;;;8.83;5.80;;;14.60;72.40;;;;;;475418;250;28800;-72
2021/04/28 10:28:48;;;;;;;7.57;6.40;;;14.70;69.40;;;;;;475426;250;28886;-72
2021/04/28 10:30:50;;;;;;;8.20;6.50;;;14.60;71.30;;;;;;475353;250;28901;-72
2021/04/28 10:32:51;;;;;;;11.30;7.03;;;14.60;72.90;;;;;;475401;250;28797;-73
2021/04/28 10:34:52;;;;;;;8.60;5.93;;;15.00;73.00;;;;;;475403;250;29263;-72
2021/04/28 10:36:54;;;;;;;7.63;5.47;;;15.10;70.70;;;;;;475413;250;28935;-72